LIEE

Details ICAO LIEE (CAG)
Name Cagliari Elmas
Region Italy
Timezone Europe/Rome (UTC+1.0)
Plans Departing 766
Arriving 780
Stats Elevation 13 ft / 4 m (AMSL)
Location 39.251500° 9.054330°
Runways 1
Magnetic Variation 2.400° E
Sunrise 2018-12-18 06:39:23 UTC / 2018-12-18 07:39:23 Local
Sunset 2018-12-18 16:03:51 UTC / 2018-12-18 17:03:51 Local
Advertisement - Login to hide

Runways

ID Width Length Bearing (true/mag) Surface Threshold Overrun Markings Lighting
14 148 ft / 45 m 9,200 ft / 2,804 m 138.08° / 135.68° ASPHALT 0 ft / 0 m 0 ft / 0 m PREC-APP EDGE THRESHOLD REIL-OMNI
32 148 ft / 45 m 9,200 ft / 2,804 m 318.10° / 315.70° ASPHALT 0 ft / 0 m 0 ft / 0 m PREC-APP EDGE THRESHOLD ALSF-I REIL-OMNI

Approach Navaids

Runway Type Ident Frequency Range Bearing (true/mag) Slope Elevation
32 LOC-ILS IEL 109.50 MHz 18 nm / 33 km 318.10° / 315.70° - 13 ft / 4 m (AMSL)
32 OM OM - - 318.08° / 315.68° - 13 ft / 4 m (AMSL)
32 GS IEL 109.50 MHz 10 nm / 19 km 318.10° / 315.70° 3.00° 13 ft / 4 m (AMSL)
32 MM MM - - 318.08° / 315.68° - 13 ft / 4 m (AMSL)
32 DME IEL 109.50 MHz 18 nm / 33 km - - 26 ft / 8 m (AMSL)

Map

Weather


0- 5 10 15 20 25 30 35+ Temperature / °C

Clouds and Precipitation
Forecast for 2018-12-18 18:00 UTC. Updated an hour ago

Ground ~20,000 ft ~40,000 ft Winds

METAR

LIEE 181620Z 31004KT CAVOK 13/08 Q1026

TAF

TAF LIEE 181100Z 1812/1912 33008KT CAVOK= TAF LIEO 181100Z 1812/1912 24007KT 9999 SCT020

Frequencies

Approach 118.75 MHz CAGLIARI APP
Approach 118.40 MHz CAGLIARI APP
Tower 120.60 MHz
Ground 121.60 MHz
Tower 122.10 MHz
Warning: Do not use this data for real-world aviation or navigation. No guarantee of current accuracy is given.